Time;durP1;ratioP1;P1;durP2;ratioP2;P2;SDS_P1;SDS_P2;PMS_P1;PMS_P2;Temp;Humidity;BMP_temperature;BMP_pressure;BME280_temperature;BME280_humidity;BME280_pressure;Samples;Min_cycle;Max_cycle;Signal;HPM_P1;HPM_P2
2023/04/02 00:01:25;;;;;;;1.20;0.90;;;20.20;87.60;;;;;;4977849;28;20461;-89
2023/04/02 00:04:13;;;;;;;1.03;0.80;;;20.20;87.60;;;;;;4974795;28;20467;-88
2023/04/02 00:06:43;;;;;;;1.50;1.03;;;20.20;87.30;;;;;;4977895;28;20444;-89
2023/04/02 00:09:28;;;;;;;1.10;0.70;;;20.20;87.80;;;;;;4977885;28;20439;-89
2023/04/02 00:11:55;;;;;;;1.00;0.70;;;20.20;87.60;;;;;;4977559;28;21082;-89
2023/04/02 00:14:27;;;;;;;1.20;0.93;;;20.20;88.00;;;;;;4977916;28;20476;-89
2023/04/02 00:16:55;;;;;;;1.20;0.90;;;20.20;88.00;;;;;;4977678;28;20800;-89
2023/04/02 00:19:29;;;;;;;1.00;0.70;;;20.20;88.70;;;;;;4977554;28;20449;-89
2023/04/02 00:21:57;;;;;;;1.20;0.93;;;20.20;89.00;;;;;;4977390;28;20475;-89
2023/04/02 00:24:24;;;;;;;1.10;0.90;;;20.20;88.60;;;;;;4977468;28;20447;-89
2023/04/02 00:26:53;;;;;;;1.40;0.80;;;20.20;89.00;;;;;;4977317;28;20449;-89
2023/04/02 00:29:20;;;;;;;1.07;0.70;;;20.20;89.20;;;;;;4977176;28;20445;-89
2023/04/02 00:31:50;;;;;;;1.00;0.80;;;20.20;88.70;;;;;;4976947;28;20563;-88
2023/04/02 00:34:21;;;;;;;1.20;0.93;;;20.20;89.00;;;;;;4977286;28;20932;-89
2023/04/02 00:36:49;;;;;;;1.10;0.80;;;20.20;88.70;;;;;;4977362;28;20800;-89
2023/04/02 00:39:22;;;;;;;1.50;0.80;;;20.20;87.90;;;;;;4977155;28;20444;-89
2023/04/02 00:41:53;;;;;;;1.50;0.90;;;20.20;86.70;;;;;;4977271;28;20472;-89
2023/04/02 00:44:22;;;;;;;1.07;0.80;;;20.10;86.40;;;;;;4977012;28;20440;-89
2023/04/02 00:46:52;;;;;;;1.00;0.80;;;20.10;86.20;;;;;;4977373;28;20464;-89
2023/04/02 00:49:24;;;;;;;1.00;0.70;;;20.10;87.00;;;;;;4975757;28;20472;-89
2023/04/02 00:51:56;;;;;;;1.00;0.80;;;20.10;86.10;;;;;;4960057;28;20493;-89
2023/04/02 00:54:27;;;;;;;1.00;0.70;;;20.10;86.00;;;;;;4993750;28;20448;-89
2023/04/02 00:56:56;;;;;;;0.90;0.70;;;20.10;86.20;;;;;;4996735;28;20439;-88
2023/04/02 00:59:28;;;;;;;1.00;0.80;;;20.10;86.30;;;;;;4996099;28;20930;-89
2023/04/02 01:02:00;;;;;;;1.30;0.90;;;20.10;86.30;;;;;;4995979;28;20467;-89
2023/04/02 01:04:33;;;;;;;1.07;0.90;;;20.10;86.10;;;;;;4996169;28;20531;-89
2023/04/02 01:07:03;;;;;;;1.00;0.80;;;20.10;86.30;;;;;;4995963;28;20448;-89
2023/04/02 01:09:50;;;;;;;1.27;0.80;;;20.10;86.40;;;;;;4996243;28;20447;-89
2023/04/02 01:12:38;;;;;;;0.97;0.70;;;20.10;86.70;;;;;;4992007;28;20850;-89
2023/04/02 01:15:12;;;;;;;2.20;0.90;;;20.10;87.10;;;;;;4995890;28;20454;-89
2023/04/02 01:17:57;;;;;;;1.00;0.70;;;20.10;86.60;;;;;;4995959;28;20435;-89
2023/04/02 01:21:00;;;;;;;1.03;0.80;;;20.10;86.60;;;;;;4995914;28;20454;-89
2023/04/02 01:23:35;;;;;;;1.30;0.70;;;20.10;87.10;;;;;;4995599;28;20454;-89
2023/04/02 01:26:11;;;;;;;1.30;0.80;;;20.00;87.80;;;;;;4995808;28;20447;-89
2023/04/02 01:29:05;;;;;;;1.00;0.60;;;20.00;86.70;;;;;;4995851;28;20428;-89
2023/04/02 01:31:34;;;;;;;1.00;0.70;;;20.10;85.50;;;;;;4977429;28;20487;-89
2023/04/02 01:34:03;;;;;;;1.73;0.80;;;20.00;86.80;;;;;;4995702;28;20785;-89
2023/04/02 01:36:39;;;;;;;1.10;0.90;;;20.00;85.60;;;;;;4978470;28;20447;-89
2023/04/02 01:39:16;;;;;;;1.00;0.60;;;20.10;86.50;;;;;;4995538;28;20536;-89
2023/04/02 01:41:49;;;;;;;1.20;1.00;;;20.10;86.30;;;;;;4995312;28;20961;-89
2023/04/02 01:44:24;;;;;;;1.00;0.70;;;20.00;86.40;;;;;;4995504;28;20538;-89
2023/04/02 01:46:53;;;;;;;1.73;0.70;;;20.00;87.30;;;;;;4995530;28;20458;-89
2023/04/02 01:49:22;;;;;;;1.10;1.00;;;20.00;86.90;;;;;;4995231;28;20547;-89
2023/04/02 01:51:53;;;;;;;1.00;0.80;;;20.00;86.20;;;;;;4995185;28;20518;-89
2023/04/02 01:54:22;;;;;;;1.00;0.63;;;20.00;85.90;;;;;;4995110;28;20439;-89
2023/04/02 01:56:49;;;;;;;2.20;0.90;;;20.00;85.90;;;;;;4995489;28;20822;-89
2023/04/02 01:59:21;;;;;;;1.07;0.77;;;20.00;86.00;;;;;;4995620;28;20523;-89
2023/04/02 02:01:55;;;;;;;1.20;0.73;;;20.00;85.60;;;;;;4994392;28;20499;-89
2023/04/02 02:04:22;;;;;;;1.00;0.83;;;20.00;86.00;;;;;;4994898;28;20477;-89
2023/04/02 02:06:49;;;;;;;1.20;0.90;;;20.00;85.30;;;;;;4994812;28;20852;-89
2023/04/02 02:09:22;;;;;;;1.00;0.70;;;20.00;84.90;;;;;;4995554;28;20772;-88
2023/04/02 02:11:50;;;;;;;2.30;0.70;;;20.00;85.00;;;;;;4994668;28;20471;-89
2023/04/02 02:14:21;;;;;;;1.87;0.90;;;20.00;85.10;;;;;;4994785;28;20446;-89
2023/04/02 02:16:52;;;;;;;1.10;0.80;;;20.00;85.00;;;;;;4994955;28;20530;-89
2023/04/02 02:19:26;;;;;;;1.30;0.83;;;20.00;85.40;;;;;;4994766;28;20440;-89
2023/04/02 02:21:56;;;;;;;1.10;0.87;;;20.00;85.20;;;;;;4994365;28;20438;-89
2023/04/02 02:24:25;;;;;;;1.00;0.70;;;20.00;85.30;;;;;;4995029;28;20457;-89
2023/04/02 02:27:05;;;;;;;1.00;0.80;;;20.00;85.30;;;;;;4994768;28;20455;-89
2023/04/02 02:29:37;;;;;;;1.00;0.80;;;20.00;85.00;;;;;;4994693;28;20523;-89
2023/04/02 02:32:07;;;;;;;0.90;0.60;;;20.00;85.20;;;;;;4994521;28;20492;-89
2023/04/02 02:34:38;;;;;;;1.00;0.80;;;20.00;84.90;;;;;;4994249;28;20432;-89
2023/04/02 02:37:08;;;;;;;1.40;0.80;;;20.00;85.00;;;;;;4994467;28;20444;-88
2023/04/02 02:39:39;;;;;;;1.10;0.87;;;20.00;85.10;;;;;;4994481;28;20454;-89
2023/04/02 02:42:13;;;;;;;1.00;0.70;;;19.90;85.00;;;;;;4994559;28;20447;-88
2023/04/02 02:44:46;;;;;;;1.00;0.70;;;20.00;84.90;;;;;;4994411;28;20457;-89
2023/04/02 02:47:15;;;;;;;1.00;0.77;;;20.00;85.10;;;;;;4994228;28;20428;-88
2023/04/02 02:49:45;;;;;;;1.10;0.80;;;20.00;84.80;;;;;;4994444;28;20510;-89
2023/04/02 02:52:17;;;;;;;1.10;0.80;;;19.90;84.70;;;;;;4994051;28;20496;-89
2023/04/02 02:54:47;;;;;;;1.00;0.70;;;20.00;84.80;;;;;;4994618;28;20451;-89
2023/04/02 02:57:18;;;;;;;1.00;0.70;;;20.10;85.00;;;;;;4994090;28;20936;-89
2023/04/02 02:59:46;;;;;;;1.47;0.80;;;19.90;84.70;;;;;;4994181;28;20451;-89
2023/04/02 03:02:15;;;;;;;1.13;0.70;;;19.90;84.70;;;;;;4994478;28;20444;-89
2023/04/02 03:04:46;;;;;;;1.03;0.80;;;19.90;84.90;;;;;;4993915;28;20459;-89
2023/04/02 03:07:15;;;;;;;1.00;0.70;;;19.90;84.80;;;;;;4994004;28;20435;-89
2023/04/02 03:09:49;;;;;;;1.10;0.70;;;19.90;84.60;;;;;;4993947;28;20510;-89
2023/04/02 03:12:32;;;;;;;1.20;0.87;;;19.90;84.70;;;;;;4994587;28;20525;-89
2023/04/02 03:15:06;;;;;;;1.00;0.70;;;19.90;84.60;;;;;;4998558;28;20436;-89
2023/04/02 03:17:40;;;;;;;1.00;0.80;;;19.90;84.50;;;;;;4999016;28;20510;-89
2023/04/02 03:20:14;;;;;;;1.00;0.60;;;19.90;84.70;;;;;;4997927;28;20428;-89
2023/04/02 03:22:46;;;;;;;0.90;0.60;;;20.00;84.90;;;;;;4998079;28;20484;-89
2023/04/02 03:25:25;;;;;;;1.07;0.70;;;19.90;84.70;;;;;;4998044;28;20443;-89
2023/04/02 03:27:55;;;;;;;1.00;0.90;;;19.90;84.50;;;;;;4998068;28;20442;-89
2023/04/02 03:30:30;;;;;;;0.97;0.70;;;19.90;84.50;;;;;;4997688;28;20462;-90
2023/04/02 03:33:00;;;;;;;0.90;0.60;;;19.90;85.40;;;;;;4997816;28;20489;-89
2023/04/02 03:35:33;;;;;;;1.00;0.70;;;19.90;84.60;;;;;;4997662;28;20433;-89
2023/04/02 03:38:04;;;;;;;1.00;0.70;;;19.90;84.50;;;;;;4997493;28;20538;-89
2023/04/02 03:40:35;;;;;;;1.00;0.70;;;19.90;85.20;;;;;;4997814;28;20454;-89
2023/04/02 03:43:11;;;;;;;1.10;0.90;;;19.90;84.30;;;;;;4997741;28;20443;-89
2023/04/02 03:45:43;;;;;;;0.97;0.70;;;19.90;84.60;;;;;;4997649;28;20434;-89
2023/04/02 03:48:15;;;;;;;1.00;0.80;;;19.90;84.50;;;;;;4997524;28;20484;-89
2023/04/02 03:50:47;;;;;;;1.00;0.70;;;19.80;84.20;;;;;;4997566;28;20440;-89
2023/04/02 03:53:14;;;;;;;1.03;0.70;;;19.80;84.30;;;;;;4997265;28;20484;-89
2023/04/02 03:55:42;;;;;;;1.20;0.90;;;19.80;85.10;;;;;;4997227;28;20487;-89
2023/04/02 03:58:16;;;;;;;1.10;0.90;;;19.80;84.20;;;;;;4997145;28;20447;-89
2023/04/02 04:00:50;;;;;;;1.00;0.70;;;19.80;84.20;;;;;;4997027;28;20554;-89
2023/04/02 04:03:20;;;;;;;1.10;0.80;;;19.80;84.10;;;;;;4997146;28;20432;-89
2023/04/02 04:05:50;;;;;;;1.00;0.70;;;19.80;84.00;;;;;;4997340;28;20535;-89
2023/04/02 04:08:20;;;;;;;1.00;0.80;;;19.80;83.90;;;;;;4997040;28;20444;-89
2023/04/02 04:10:52;;;;;;;1.20;0.80;;;19.80;83.90;;;;;;4997207;28;20450;-89
2023/04/02 04:13:24;;;;;;;1.07;0.80;;;19.80;83.80;;;;;;4996934;28;20492;-89
2023/04/02 04:16:00;;;;;;;1.00;0.70;;;19.80;83.80;;;;;;4997164;28;20851;-89
2023/04/02 04:18:36;;;;;;;1.10;0.80;;;19.80;83.80;;;;;;4996890;28;20931;-89
2023/04/02 04:21:11;;;;;;;1.10;0.80;;;19.80;83.80;;;;;;4996959;28;20450;-90
2023/04/02 04:23:39;;;;;;;1.00;0.70;;;19.80;84.10;;;;;;4996885;28;20443;-89
2023/04/02 04:26:18;;;;;;;1.20;0.90;;;19.80;84.30;;;;;;4996659;28;20448;-89
2023/04/02 04:28:57;;;;;;;1.10;0.80;;;19.80;83.90;;;;;;4996778;28;20436;-89
2023/04/02 04:31:32;;;;;;;1.00;0.80;;;19.80;84.00;;;;;;4996635;28;20837;-89
2023/04/02 04:34:05;;;;;;;1.00;0.70;;;19.80;84.00;;;;;;4996887;28;20874;-89
2023/04/02 04:36:36;;;;;;;1.00;0.80;;;19.80;84.10;;;;;;4997013;28;20449;-89
2023/04/02 04:39:13;;;;;;;1.10;0.80;;;19.80;84.10;;;;;;4996458;28;20453;-89
2023/04/02 04:41:42;;;;;;;1.13;1.03;;;19.80;84.20;;;;;;4996709;28;20441;-89
2023/04/02 04:44:16;;;;;;;1.00;0.70;;;19.80;84.10;;;;;;4996774;28;20444;-89
2023/04/02 04:46:49;;;;;;;1.07;0.80;;;19.80;84.30;;;;;;4996263;28;20435;-89
2023/04/02 04:49:20;;;;;;;1.10;0.80;;;19.80;84.20;;;;;;4996582;28;20474;-89
2023/04/02 04:51:51;;;;;;;1.10;0.80;;;19.80;84.20;;;;;;4996406;28;20546;-89
2023/04/02 04:54:18;;;;;;;1.00;0.70;;;19.80;84.20;;;;;;4996219;28;20452;-88
2023/04/02 04:56:48;;;;;;;1.10;0.80;;;19.80;84.20;;;;;;4996417;28;20455;-89
2023/04/02 04:59:20;;;;;;;1.07;0.80;;;19.70;84.00;;;;;;4996099;28;20448;-89
2023/04/02 05:01:55;;;;;;;1.00;0.77;;;19.80;84.10;;;;;;4996317;28;20523;-89
2023/04/02 05:04:25;;;;;;;1.00;0.70;;;19.70;84.20;;;;;;4996017;28;20439;-89
2023/04/02 05:06:55;;;;;;;1.10;1.00;;;19.70;84.10;;;;;;4996254;28;20436;-89
2023/04/02 05:09:28;;;;;;;1.10;0.83;;;19.70;84.00;;;;;;4996360;28;20440;-89
2023/04/02 05:12:04;;;;;;;1.40;0.80;;;19.70;84.30;;;;;;4996270;28;20479;-89
2023/04/02 05:14:36;;;;;;;1.10;0.90;;;19.70;84.00;;;;;;4995880;28;20983;-89
2023/04/02 05:17:09;;;;;;;1.70;0.80;;;19.70;84.00;;;;;;4996098;28;20526;-89
2023/04/02 05:19:42;;;;;;;1.17;0.97;;;19.70;84.00;;;;;;4995752;28;20444;-89
2023/04/02 05:22:19;;;;;;;1.20;0.93;;;19.70;84.30;;;;;;4995978;28;20468;-89
2023/04/02 05:24:55;;;;;;;1.30;0.80;;;19.70;84.20;;;;;;4995811;28;20454;-89
2023/04/02 05:27:29;;;;;;;1.40;1.03;;;19.70;84.20;;;;;;4995649;28;20431;-89
2023/04/02 05:30:02;;;;;;;1.00;0.80;;;19.70;84.20;;;;;;4995795;28;20985;-89
2023/04/02 05:32:34;;;;;;;1.10;0.90;;;19.70;84.20;;;;;;4995626;28;20487;-89
2023/04/02 05:35:04;;;;;;;1.20;0.80;;;19.70;84.40;;;;;;4994944;28;20552;-89
2023/04/02 05:37:32;;;;;;;1.00;0.70;;;19.70;84.50;;;;;;4995442;28;20938;-88
2023/04/02 05:40:05;;;;;;;1.77;0.80;;;19.70;84.70;;;;;;4995587;28;20452;-89
2023/04/02 05:42:36;;;;;;;1.00;0.77;;;19.70;84.80;;;;;;4995565;28;20456;-89
2023/04/02 05:45:13;;;;;;;1.40;1.20;;;19.70;84.90;;;;;;4995315;28;20443;-89
2023/04/02 05:47:44;;;;;;;1.00;0.80;;;19.70;84.90;;;;;;4995100;28;20479;-89
2023/04/02 05:50:29;;;;;;;1.00;0.77;;;19.70;85.30;;;;;;4995475;28;20784;-89
2023/04/02 05:53:00;;;;;;;1.10;0.80;;;19.70;85.10;;;;;;4995125;28;20493;-88
2023/04/02 05:55:35;;;;;;;1.00;0.90;;;19.60;85.10;;;;;;4995053;28;20507;-88
2023/04/02 05:58:06;;;;;;;1.00;0.83;;;19.70;85.20;;;;;;4994920;28;20453;-88
2023/04/02 06:00:53;;;;;;;1.00;0.80;;;19.60;85.30;;;;;;4994978;28;20479;-89
2023/04/02 06:03:27;;;;;;;1.83;1.10;;;19.70;85.60;;;;;;4978656;28;20448;-88
2023/04/02 06:05:59;;;;;;;1.20;0.90;;;19.70;85.60;;;;;;4995224;28;20440;-89
2023/04/02 06:08:34;;;;;;;1.23;0.80;;;19.60;85.40;;;;;;4995092;28;20448;-89
2023/04/02 06:11:07;;;;;;;1.10;0.90;;;19.60;85.30;;;;;;4981742;28;20916;-89
2023/04/02 06:13:34;;;;;;;1.10;0.97;;;19.60;85.20;;;;;;4984107;28;20487;-89
2023/04/02 06:16:01;;;;;;;1.40;0.93;;;19.60;85.50;;;;;;4976857;28;20441;-90
2023/04/02 06:18:32;;;;;;;1.00;0.80;;;19.60;85.50;;;;;;4989641;28;20448;-90
2023/04/02 06:20:59;;;;;;;1.50;1.00;;;19.60;85.60;;;;;;4994605;28;20538;-89
2023/04/02 06:23:32;;;;;;;1.20;0.80;;;19.60;85.50;;;;;;4994476;28;20443;-89
2023/04/02 06:26:03;;;;;;;1.40;0.90;;;19.70;85.20;;;;;;4981540;28;20472;-89
2023/04/02 06:28:38;;;;;;;1.93;0.90;;;19.60;85.00;;;;;;4983141;28;20452;-89
2023/04/02 06:31:10;;;;;;;1.13;0.90;;;19.60;85.00;;;;;;4987981;28;20466;-89
2023/04/02 06:33:38;;;;;;;1.23;0.93;;;19.60;84.90;;;;;;4994400;28;20488;-89
2023/04/02 06:36:08;;;;;;;1.00;0.73;;;19.60;85.00;;;;;;4994254;28;20444;-90
2023/04/02 06:38:37;;;;;;;5.00;1.00;;;19.60;84.90;;;;;;4994746;28;20449;-87
2023/04/02 06:41:13;;;;;;;1.20;0.90;;;19.60;85.10;;;;;;4994434;28;20443;-91
2023/04/02 06:43:45;;;;;;;1.10;0.90;;;19.60;84.90;;;;;;4994588;28;20443;-91
2023/04/02 06:46:18;;;;;;;1.77;0.90;;;19.70;85.20;;;;;;4994277;28;20440;-91
2023/04/02 06:48:48;;;;;;;1.40;1.03;;;19.60;85.00;;;;;;4993676;28;20468;-91
2023/04/02 06:51:18;;;;;;;1.50;0.90;;;19.70;85.30;;;;;;4994627;28;20420;-91
2023/04/02 06:53:47;;;;;;;1.30;1.13;;;19.60;85.30;;;;;;4994249;28;20484;-91
2023/04/02 06:56:23;;;;;;;1.20;0.90;;;19.90;85.50;;;;;;4994261;28;20440;-92
2023/04/02 06:58:50;;;;;;;1.80;0.90;;;19.80;85.30;;;;;;4994341;28;20459;-91
2023/04/02 07:01:20;;;;;;;1.30;0.90;;;19.60;85.40;;;;;;4994091;28;20474;-90
2023/04/02 07:03:48;;;;;;;1.10;0.80;;;19.70;85.50;;;;;;4994148;28;20543;-91
2023/04/02 07:06:16;;;;;;;1.10;0.90;;;19.60;85.50;;;;;;4994184;28;21034;-91
2023/04/02 07:08:43;;;;;;;1.67;1.10;;;19.60;85.60;;;;;;4994362;28;20455;-90
2023/04/02 07:11:13;;;;;;;1.20;0.93;;;19.60;85.50;;;;;;4994057;28;20444;-91
2023/04/02 07:13:40;;;;;;;2.13;0.90;;;19.70;86.30;;;;;;4994241;28;20486;-91
2023/04/02 07:16:14;;;;;;;1.00;0.80;;;19.70;86.50;;;;;;4993888;28;20451;-91
2023/04/02 07:18:41;;;;;;;1.00;0.70;;;19.70;86.70;;;;;;4993952;28;20451;-90
2023/04/02 07:21:10;;;;;;;1.70;1.20;;;19.70;87.10;;;;;;4993807;28;20452;-91
2023/04/02 07:23:37;;;;;;;1.37;1.07;;;19.70;87.20;;;;;;4994149;28;20444;-90
2023/04/02 07:26:06;;;;;;;2.20;1.03;;;19.80;87.10;;;;;;4994238;28;20495;-91
2023/04/02 07:28:32;;;;;;;1.70;0.97;;;19.70;87.10;;;;;;4994071;28;20436;-91
2023/04/02 07:31:00;;;;;;;1.73;1.00;;;19.70;87.00;;;;;;4993999;28;20551;-91
2023/04/02 07:33:29;;;;;;;4.30;0.90;;;19.70;87.20;;;;;;4994104;28;20576;-90
2023/04/02 07:35:57;;;;;;;1.30;0.90;;;19.80;87.40;;;;;;4993969;28;20451;-91
2023/04/02 07:38:25;;;;;;;1.10;0.80;;;19.70;87.20;;;;;;4993575;28;20451;-91
2023/04/02 07:40:53;;;;;;;1.37;0.93;;;19.70;87.30;;;;;;4993414;28;20440;-90
2023/04/02 07:43:20;;;;;;;1.30;0.90;;;19.70;87.60;;;;;;4993824;28;20536;-91
2023/04/02 07:45:47;;;;;;;1.30;1.20;;;19.70;87.70;;;;;;4993791;28;20939;-90
2023/04/02 07:48:15;;;;;;;1.40;1.00;;;19.70;87.90;;;;;;4993607;28;20480;-90
2023/04/02 07:50:41;;;;;;;4.90;1.70;;;19.70;88.00;;;;;;4993764;28;20543;-91
2023/04/02 07:53:15;;;;;;;8.03;1.47;;;19.70;86.60;;;;;;4993764;28;20528;-89
2023/04/02 07:55:43;;;;;;;1.73;1.10;;;20.00;87.20;;;;;;4994764;28;20443;-95
2023/04/02 07:58:10;;;;;;;2.27;0.90;;;19.70;87.60;;;;;;4994552;28;20452;-92
2023/04/02 08:00:37;;;;;;;4.50;1.20;;;19.70;87.50;;;;;;4997335;28;21063;-93
2023/04/02 08:03:04;;;;;;;1.43;1.03;;;19.70;87.60;;;;;;4997601;28;20450;-95
2023/04/02 08:05:32;;;;;;;1.23;1.07;;;19.70;87.80;;;;;;4997248;28;20458;-93
2023/04/02 08:07:59;;;;;;;1.40;1.27;;;19.70;87.50;;;;;;4997460;28;20448;-92
2023/04/02 08:10:26;;;;;;;1.67;1.03;;;19.70;87.20;;;;;;4997386;28;20452;-88
2023/04/02 08:12:54;;;;;;;1.40;1.10;;;19.70;87.60;;;;;;4996796;28;20486;-87
2023/04/02 08:15:21;;;;;;;3.07;1.20;;;19.70;87.50;;;;;;4997230;28;20513;-88
2023/04/02 08:17:48;;;;;;;1.20;1.03;;;19.80;87.80;;;;;;4996999;28;20455;-87
2023/04/02 08:20:16;;;;;;;2.43;1.17;;;19.70;87.40;;;;;;4996745;28;20452;-88
2023/04/02 08:22:44;;;;;;;2.03;1.07;;;19.70;87.60;;;;;;4997082;28;20880;-88
2023/04/02 08:25:11;;;;;;;1.60;1.10;;;19.70;87.50;;;;;;4996923;28;20456;-88
2023/04/02 08:27:38;;;;;;;1.60;1.17;;;19.70;87.60;;;;;;4996610;28;20448;-87
2023/04/02 08:30:08;;;;;;;2.60;1.27;;;19.70;87.50;;;;;;4996113;28;21006;-87
2023/04/02 08:32:35;;;;;;;1.40;1.13;;;19.70;87.60;;;;;;4996084;28;21175;-87
2023/04/02 08:35:02;;;;;;;1.30;1.00;;;19.60;87.40;;;;;;4996288;28;20456;-88
2023/04/02 08:37:29;;;;;;;1.47;1.10;;;19.70;87.40;;;;;;4995934;28;20455;-87
2023/04/02 08:39:56;;;;;;;1.10;0.93;;;19.70;87.60;;;;;;4996110;28;21112;-87
2023/04/02 08:42:29;;;;;;;1.77;0.90;;;19.70;86.10;;;;;;4995855;28;20444;-87
2023/04/02 08:45:06;;;;;;;1.20;1.10;;;19.70;86.00;;;;;;4996210;28;20542;-87
2023/04/02 08:47:36;;;;;;;1.13;0.90;;;19.90;85.70;;;;;;4996374;28;20854;-88
2023/04/02 08:50:10;;;;;;;5.23;1.10;;;19.70;85.90;;;;;;4996443;28;20432;-87
2023/04/02 08:52:38;;;;;;;1.57;1.00;;;19.70;84.90;;;;;;4996509;28;20425;-88
2023/04/02 08:55:18;;;;;;;1.20;0.90;;;19.70;84.40;;;;;;4996401;28;20443;-87
2023/04/02 08:57:51;;;;;;;1.20;1.10;;;19.70;84.40;;;;;;4996283;28;20494;-88
2023/04/02 09:00:27;;;;;;;1.57;1.17;;;19.70;84.30;;;;;;4996375;28;20493;-88
2023/04/02 09:02:58;;;;;;;2.40;1.37;;;19.70;84.40;;;;;;4996402;28;20444;-88
2023/04/02 09:05:28;;;;;;;1.50;1.17;;;19.70;84.20;;;;;;4996149;28;20467;-88
2023/04/02 09:07:58;;;;;;;5.00;1.20;;;19.70;84.00;;;;;;4996058;28;20435;-88
2023/04/02 09:10:36;;;;;;;2.60;1.00;;;19.70;84.00;;;;;;4995177;28;20451;-87
2023/04/02 09:13:05;;;;;;;1.20;1.03;;;19.70;83.90;;;;;;4995805;28;20944;-87
2023/04/02 09:15:35;;;;;;;1.67;1.00;;;19.70;83.90;;;;;;4996002;28;20449;-88
2023/04/02 09:18:13;;;;;;;1.30;0.90;;;19.70;84.10;;;;;;4995864;28;20462;-87
2023/04/02 09:20:40;;;;;;;1.60;1.20;;;19.70;84.00;;;;;;4995942;28;20424;-87
2023/04/02 09:23:15;;;;;;;1.10;0.80;;;19.70;83.90;;;;;;4995730;28;20454;-88
2023/04/02 09:25:45;;;;;;;1.40;1.20;;;19.70;83.80;;;;;;4995931;28;20446;-88
2023/04/02 09:28:12;;;;;;;2.03;1.10;;;19.70;83.60;;;;;;4995773;28;20446;-87
2023/04/02 09:30:52;;;;;;;1.30;1.20;;;19.70;83.60;;;;;;4995648;28;20522;-88
2023/04/02 09:33:40;;;;;;;1.20;0.90;;;19.70;83.70;;;;;;4995589;28;20480;-88
2023/04/02 09:36:17;;;;;;;2.30;1.50;;;19.70;83.80;;;;;;4995791;28;20800;-87
2023/04/02 09:38:57;;;;;;;1.27;1.13;;;19.70;83.70;;;;;;4995511;28;20447;-87
2023/04/02 09:41:27;;;;;;;1.80;1.40;;;19.70;83.50;;;;;;4995263;28;20448;-88
2023/04/02 09:44:12;;;;;;;1.10;0.90;;;19.70;83.60;;;;;;4995232;28;20446;-87
2023/04/02 09:46:48;;;;;;;1.43;0.90;;;19.70;83.70;;;;;;4995179;28;20981;-88
2023/04/02 09:49:17;;;;;;;1.90;1.30;;;19.70;83.90;;;;;;4995362;28;20978;-87
2023/04/02 09:51:44;;;;;;;1.60;1.33;;;19.70;84.00;;;;;;4994980;28;20896;-87
2023/04/02 09:54:14;;;;;;;1.07;0.90;;;19.70;83.90;;;;;;4994953;28;20499;-88
2023/04/02 09:56:59;;;;;;;1.10;0.90;;;19.70;84.00;;;;;;4995096;28;20448;-88
2023/04/02 09:59:26;;;;;;;1.30;1.13;;;19.80;84.20;;;;;;4994864;28;20476;-87
2023/04/02 10:02:02;;;;;;;2.27;0.90;;;19.70;85.00;;;;;;4994899;28;20448;-87
2023/04/02 10:04:37;;;;;;;1.20;1.00;;;19.80;84.30;;;;;;4995007;28;20475;-87
2023/04/02 10:07:05;;;;;;;1.30;1.10;;;19.80;84.10;;;;;;4995174;28;20442;-87
2023/04/02 10:09:34;;;;;;;1.60;1.37;;;19.70;84.00;;;;;;4994849;28;20535;-88
2023/04/02 10:12:03;;;;;;;1.93;1.20;;;19.80;84.20;;;;;;4994649;28;20450;-87
2023/04/02 10:14:33;;;;;;;1.10;0.80;;;19.70;84.20;;;;;;4994624;28;20486;-88
2023/04/02 10:17:10;;;;;;;1.40;1.10;;;19.80;84.30;;;;;;4994835;28;20451;-88
2023/04/02 10:19:42;;;;;;;1.50;1.40;;;19.70;84.30;;;;;;4994809;28;20443;-88
2023/04/02 10:22:14;;;;;;;1.40;0.90;;;19.70;84.20;;;;;;4994540;28;20469;-88
2023/04/02 10:24:41;;;;;;;6.10;1.10;;;19.80;84.60;;;;;;4994800;28;20448;-87
2023/04/02 10:27:21;;;;;;;1.27;1.17;;;19.70;84.50;;;;;;4994946;28;20443;-87
2023/04/02 10:30:18;;;;;;;1.50;1.00;;;19.70;84.50;;;;;;4994442;28;21051;-87
2023/04/02 10:32:50;;;;;;;1.13;0.87;;;19.80;84.50;;;;;;4994495;28;20448;-88
2023/04/02 10:35:27;;;;;;;1.63;1.03;;;20.00;85.20;;;;;;4994488;28;20496;-88
2023/04/02 10:38:09;;;;;;;1.30;1.20;;;19.90;85.20;;;;;;4994596;28;20448;-88
2023/04/02 10:40:40;;;;;;;1.30;1.03;;;19.70;84.90;;;;;;4994591;28;20514;-87
2023/04/02 10:43:30;;;;;;;1.20;0.93;;;19.70;84.90;;;;;;4994544;28;20437;-88
2023/04/02 10:46:02;;;;;;;2.13;1.13;;;19.80;85.20;;;;;;4994576;28;20454;-88
2023/04/02 10:48:33;;;;;;;1.17;1.00;;;19.70;85.00;;;;;;4994145;28;20480;-88
2023/04/02 10:51:06;;;;;;;2.50;1.70;;;19.70;85.20;;;;;;4994280;28;20443;-88
2023/04/02 10:53:42;;;;;;;1.23;1.00;;;19.70;85.20;;;;;;4994095;28;20438;-88
2023/04/02 10:56:12;;;;;;;1.17;1.00;;;19.80;85.10;;;;;;4994312;28;20439;-88
2023/04/02 10:58:44;;;;;;;1.20;1.10;;;19.80;85.00;;;;;;4993980;28;20951;-88
2023/04/02 11:01:16;;;;;;;1.63;0.97;;;19.80;84.90;;;;;;4994164;28;20507;-88
2023/04/02 11:03:48;;;;;;;1.10;0.90;;;19.80;85.20;;;;;;4994268;28;20435;-88
2023/04/02 11:06:20;;;;;;;1.50;1.10;;;19.80;85.20;;;;;;4994384;28;20432;-87
2023/04/02 11:08:49;;;;;;;1.43;1.13;;;19.80;85.20;;;;;;4994028;28;20446;-88
2023/04/02 11:11:20;;;;;;;1.50;1.03;;;19.80;85.40;;;;;;4994192;28;20534;-88
2023/04/02 11:13:52;;;;;;;1.10;0.90;;;19.80;85.50;;;;;;4994672;28;20818;-88
2023/04/02 11:16:20;;;;;;;1.10;0.90;;;19.80;85.60;;;;;;4994131;28;20441;-88
2023/04/02 11:19:08;;;;;;;1.20;0.97;;;19.80;85.80;;;;;;4993920;28;20542;-88
2023/04/02 11:21:42;;;;;;;1.10;0.90;;;19.80;85.60;;;;;;4994034;28;20467;-87
2023/04/02 11:24:24;;;;;;;1.10;0.90;;;19.80;85.90;;;;;;4994127;28;20444;-88
2023/04/02 11:26:52;;;;;;;1.30;1.10;;;19.80;85.70;;;;;;4994026;28;20448;-88
2023/04/02 11:29:23;;;;;;;1.70;1.10;;;19.80;86.10;;;;;;4993692;28;20452;-88
2023/04/02 11:31:51;;;;;;;1.10;0.90;;;19.80;86.00;;;;;;4993783;28;20500;-88
2023/04/02 11:34:52;;;;;;;2.53;1.20;;;20.00;86.10;;;;;;4996308;28;20484;-88
2023/04/02 11:37:37;;;;;;;1.13;1.03;;;19.80;86.10;;;;;;4997571;28;20443;-88
2023/04/02 11:40:26;;;;;;;1.30;1.13;;;19.80;86.00;;;;;;4997762;28;20461;-88
2023/04/02 11:42:53;;;;;;;1.10;0.90;;;19.80;86.60;;;;;;4984574;28;20460;-88
2023/04/02 11:45:54;;;;;;;1.27;1.00;;;19.80;86.50;;;;;;4997658;28;20435;-88
2023/04/02 11:48:30;;;;;;;1.87;1.20;;;19.80;86.20;;;;;;4918272;29;20831;-88
2023/04/02 11:50:58;;;;;;;1.40;1.20;;;19.80;86.20;;;;;;4985814;28;20511;-88
2023/04/02 11:53:30;;;;;;;1.30;1.20;;;19.80;86.20;;;;;;4997275;28;20452;-88
2023/04/02 11:56:08;;;;;;;1.20;1.00;;;19.80;86.20;;;;;;4997402;28;20495;-87
2023/04/02 11:58:47;;;;;;;1.30;1.00;;;19.90;86.30;;;;;;4997666;28;20469;-88
2023/04/02 12:01:34;;;;;;;1.10;0.90;;;19.80;86.40;;;;;;4997369;28;20463;-88
2023/04/02 12:04:35;;;;;;;1.37;0.90;;;19.80;86.50;;;;;;4997134;28;20514;-88
2023/04/02 12:07:25;;;;;;;1.13;0.90;;;19.80;86.10;;;;;;4955462;28;20456;-88
2023/04/02 12:09:56;;;;;;;1.53;1.27;;;19.90;86.60;;;;;;4997308;28;20515;-88
2023/04/02 12:12:27;;;;;;;1.70;1.00;;;19.90;86.40;;;;;;4997276;28;20791;-88
2023/04/02 12:14:56;;;;;;;1.20;1.00;;;19.90;86.50;;;;;;4997217;28;20851;-88
2023/04/02 12:17:28;;;;;;;1.10;0.80;;;19.90;86.50;;;;;;4996939;28;20444;-88
2023/04/02 12:19:57;;;;;;;1.10;0.80;;;19.90;86.80;;;;;;4997022;28;20448;-88
2023/04/02 12:22:28;;;;;;;1.33;1.10;;;19.90;86.80;;;;;;4997012;28;20951;-88
2023/04/02 12:24:59;;;;;;;1.40;1.30;;;19.90;86.80;;;;;;4998144;28;20750;-88
2023/04/02 12:27:28;;;;;;;1.20;0.90;;;19.90;86.60;;;;;;4996770;28;20986;-88
2023/04/02 12:29:56;;;;;;;1.20;1.00;;;19.90;86.90;;;;;;4996577;28;20459;-88
2023/04/02 12:32:27;;;;;;;1.23;1.13;;;19.90;87.00;;;;;;4996936;28;20518;-88
2023/04/02 12:34:56;;;;;;;1.40;0.90;;;19.90;86.90;;;;;;4996768;28;20505;-88
2023/04/02 12:37:25;;;;;;;1.10;0.90;;;19.90;87.00;;;;;;4996650;28;20448;-87
2023/04/02 12:39:56;;;;;;;1.20;0.90;;;19.90;86.90;;;;;;4996842;28;20440;-88
2023/04/02 12:42:31;;;;;;;1.30;1.20;;;20.10;87.40;;;;;;4996429;28;20876;-88
2023/04/02 12:44:58;;;;;;;1.57;1.03;;;19.90;87.60;;;;;;4996832;28;20444;-88
2023/04/02 12:47:25;;;;;;;1.00;0.90;;;19.90;87.70;;;;;;4996218;28;20481;-88
2023/04/02 12:49:53;;;;;;;1.17;0.97;;;19.90;87.70;;;;;;4996380;28;20471;-88
2023/04/02 12:52:23;;;;;;;1.20;1.00;;;19.90;87.90;;;;;;4996655;28;20444;-88
2023/04/02 12:54:52;;;;;;;1.10;0.90;;;19.90;88.50;;;;;;4996740;28;21046;-88
2023/04/02 12:57:33;;;;;;;1.70;1.13;;;19.90;87.50;;;;;;4996281;28;20452;-87
2023/04/02 13:00:05;;;;;;;1.20;0.97;;;19.90;87.00;;;;;;4996343;28;20959;-88
2023/04/02 13:02:43;;;;;;;1.20;1.10;;;19.90;87.70;;;;;;4996665;28;20440;-88
2023/04/02 13:05:10;;;;;;;1.40;1.03;;;19.90;87.60;;;;;;4996612;28;20998;-88
2023/04/02 13:07:37;;;;;;;1.10;1.00;;;19.90;87.70;;;;;;4996287;28;20518;-88
2023/04/02 13:10:06;;;;;;;1.37;0.90;;;19.90;87.50;;;;;;4996390;28;20454;-88
2023/04/02 13:12:37;;;;;;;1.10;1.00;;;19.90;87.70;;;;;;4996435;28;20444;-88
2023/04/02 13:15:07;;;;;;;1.10;0.90;;;20.10;89.00;;;;;;4995831;28;20487;-88